Time;durP1;ratioP1;P1;durP2;ratioP2;P2;SDS_P1;SDS_P2;PMS_P1;PMS_P2;Temp;Humidity;BMP_temperature;BMP_pressure;BME280_temperature;BME280_humidity;BME280_pressure;Samples;Min_cycle;Max_cycle;Signal;HPM_P1;HPM_P2
2022/05/16 00:00:48;;;;;;;20.63;8.00;;;;;;;17.16;50.39;101248.47;5075254;28;20107;-61
2022/05/16 00:03:13;;;;;;;18.15;8.10;;;;;;;17.17;51.00;101244.53;5075213;28;20055;-62
2022/05/16 00:05:38;;;;;;;21.35;8.48;;;;;;;17.17;50.57;101240.91;5074225;28;20332;-62
2022/05/16 00:08:04;;;;;;;19.08;8.38;;;;;;;17.10;50.76;101242.28;5075064;28;20028;-61
2022/05/16 00:10:30;;;;;;;20.45;8.68;;;;;;;17.10;50.92;101247.03;5074476;28;20021;-62
2022/05/16 00:12:55;;;;;;;21.85;9.07;;;;;;;17.06;51.17;101241.31;5074825;28;20394;-62
2022/05/16 00:15:24;;;;;;;21.20;8.80;;;;;;;17.02;51.46;101237.56;5074623;28;20036;-62
2022/05/16 00:17:49;;;;;;;19.35;8.38;;;;;;;16.99;51.47;101239.06;5074102;28;20021;-62
2022/05/16 00:20:15;;;;;;;19.38;8.20;;;;;;;16.98;51.64;101234.66;5073887;28;20031;-64
2022/05/16 00:22:40;;;;;;;22.50;9.00;;;;;;;16.92;51.65;101235.94;5074456;28;20097;-62
2022/05/16 00:25:09;;;;;;;18.40;8.13;;;;;;;16.85;51.87;101241.28;5072601;28;20388;-62
2022/05/16 00:27:35;;;;;;;19.88;8.93;;;;;;;16.85;51.93;101238.47;5074235;28;20468;-62
2022/05/16 00:30:07;;;;;;;20.13;8.85;;;;;;;16.81;52.03;101234.75;5074127;28;20069;-61
2022/05/16 00:32:32;;;;;;;20.58;8.90;;;;;;;16.80;52.34;101225.53;5074086;28;20063;-62
2022/05/16 00:34:58;;;;;;;19.20;9.05;;;;;;;16.78;52.12;101224.25;5074192;28;20052;-61
2022/05/16 00:37:23;;;;;;;20.95;8.88;;;;;;;16.78;52.36;101225.03;5074405;28;20173;-61
2022/05/16 00:39:48;;;;;;;20.55;9.35;;;;;;;16.75;52.59;101222.94;5074222;28;20020;-61
2022/05/16 00:42:14;;;;;;;19.80;8.65;;;;;;;16.71;52.90;101218.38;5073911;28;20024;-61
2022/05/16 00:44:40;;;;;;;19.73;8.90;;;;;;;16.69;53.06;101215.91;5074329;28;20036;-62
2022/05/16 00:47:05;;;;;;;21.15;9.15;;;;;;;16.69;52.41;101211.16;5072121;28;20028;-61
2022/05/16 00:49:36;;;;;;;21.38;9.05;;;;;;;16.64;53.16;101219.72;5073274;28;20032;-62
2022/05/16 00:52:24;;;;;;;20.00;9.20;;;;;;;16.59;52.84;101203.16;5073835;28;20043;-62
2022/05/16 00:55:04;;;;;;;20.98;9.40;;;;;;;16.53;52.68;101204.53;5072049;28;20035;-61
2022/05/16 00:57:36;;;;;;;21.83;9.38;;;;;;;16.58;53.37;101209.09;5073414;28;20106;-61
2022/05/16 01:00:13;;;;;;;20.95;9.32;;;;;;;16.56;53.35;101211.41;5073662;28;20032;-62
2022/05/16 01:05:30;;;;;;;18.88;9.23;;;;;;;16.52;53.66;101205.69;5073809;28;20036;-62
2022/05/16 01:07:59;;;;;;;21.50;9.20;;;;;;;16.47;53.79;101201.13;5073520;28;20036;-61
2022/05/16 01:10:25;;;;;;;19.23;9.23;;;;;;;16.49;53.86;101200.78;5073800;28;20021;-62
2022/05/16 01:12:52;;;;;;;20.27;8.88;;;;;;;16.47;54.01;101197.50;5073308;28;20029;-62
2022/05/16 01:15:23;;;;;;;20.27;8.90;;;;;;;16.42;54.00;101201.28;5073445;28;20118;-61
2022/05/16 01:17:49;;;;;;;20.15;9.27;;;;;;;16.38;54.01;101194.75;5073372;28;20070;-61
2022/05/16 01:20:14;;;;;;;20.02;9.57;;;;;;;16.36;54.72;101200.66;5073056;28;20056;-60
2022/05/16 01:22:43;;;;;;;22.17;9.27;;;;;;;16.32;54.60;101193.31;5072791;28;20035;-62
2022/05/16 01:25:13;;;;;;;19.45;9.18;;;;;;;16.28;54.88;101192.34;5072791;28;20139;-61
2022/05/16 01:27:52;;;;;;;20.75;9.27;;;;;;;16.27;54.82;101193.50;5072984;28;20036;-61
2022/05/16 01:30:21;;;;;;;21.05;9.70;;;;;;;16.22;54.87;101192.53;5073120;28;20174;-61
2022/05/16 01:32:46;;;;;;;23.48;9.80;;;;;;;16.24;55.04;101196.97;5070958;28;20029;-62
2022/05/16 01:35:12;;;;;;;20.95;9.20;;;;;;;16.23;55.05;101198.94;5070942;28;20028;-61
2022/05/16 01:40:22;;;;;;;;;;;;;;;16.30;52.51;101202.03;5073434;28;20126;-61
2022/05/16 01:42:47;;;;;;;20.45;9.68;;;;;;;16.21;55.29;101198.47;5072753;28;19991;-61
2022/05/16 01:45:13;;;;;;;21.05;9.85;;;;;;;16.20;55.69;101196.81;5072832;28;20044;-60
2022/05/16 01:47:38;;;;;;;20.40;9.77;;;;;;;16.14;55.49;101187.00;5072402;28;20074;-61
2022/05/16 01:50:04;;;;;;;21.45;9.95;;;;;;;16.10;55.71;101191.63;5072311;28;20024;-61
2022/05/16 01:52:29;;;;;;;21.75;10.15;;;;;;;16.10;55.45;101180.44;5072661;28;20047;-61
2022/05/16 01:54:55;;;;;;;21.08;10.48;;;;;;;16.05;55.84;101182.28;5072184;28;20020;-62
2022/05/16 01:57:20;;;;;;;19.95;9.48;;;;;;;16.01;56.04;101181.31;5072463;28;20062;-62
2022/05/16 01:59:45;;;;;;;21.20;10.75;;;;;;;16.00;56.21;101184.44;5072430;28;20042;-62
2022/05/16 02:02:10;;;;;;;23.15;10.20;;;;;;;15.93;56.33;101171.00;5072516;28;20029;-61
2022/05/16 02:04:36;;;;;;;20.88;10.38;;;;;;;15.94;56.24;101177.41;5072241;28;20036;-61
2022/05/16 02:07:01;;;;;;;19.83;9.75;;;;;;;15.92;56.68;101172.16;5072114;28;20460;-61
2022/05/16 02:09:26;;;;;;;20.55;10.02;;;;;;;15.87;56.86;101169.56;5072132;28;20027;-61
2022/05/16 02:11:52;;;;;;;20.63;10.10;;;;;;;15.86;56.83;101168.75;5072386;28;20033;-61
2022/05/16 02:14:17;;;;;;;21.95;10.15;;;;;;;15.83;57.13;101171.34;5072461;28;20028;-62
2022/05/16 02:16:43;;;;;;;21.02;10.48;;;;;;;15.80;56.99;101166.44;5071261;28;20025;-61
2022/05/16 02:19:08;;;;;;;22.90;10.52;;;;;;;15.73;57.27;101158.56;5072092;28;20512;-62
2022/05/16 02:27:02;;;;;;;22.33;10.00;;;;;;;15.72;57.31;101151.38;5072035;28;19947;-62
2022/05/16 02:29:27;;;;;;;21.00;10.90;;;;;;;15.68;57.52;101153.19;5071981;28;20423;-62
2022/05/16 02:31:52;;;;;;;21.08;10.38;;;;;;;15.64;57.65;101155.00;5072543;28;20430;-61
2022/05/16 02:34:18;;;;;;;18.55;9.95;;;;;;;15.60;57.87;101147.31;5072355;28;20035;-62
2022/05/16 02:36:43;;;;;;;20.73;9.63;;;;;;;15.60;58.11;101154.84;5070617;28;20094;-62
2022/05/16 02:39:10;;;;;;;21.58;10.63;;;;;;;15.54;57.96;101143.06;5071928;28;20052;-62
2022/05/16 02:41:36;;;;;;;21.45;10.23;;;;;;;15.54;58.42;101140.25;5072040;28;20060;-62
2022/05/16 02:44:02;;;;;;;21.83;10.38;;;;;;;15.51;58.34;101143.75;5072092;28;20052;-62
2022/05/16 02:46:27;;;;;;;20.85;10.98;;;;;;;15.48;58.43;101130.44;5072036;28;20020;-62
2022/05/16 02:48:52;;;;;;;21.65;10.70;;;;;;;15.50;58.47;101135.69;5074652;28;20031;-61
2022/05/16 02:51:18;;;;;;;21.17;10.77;;;;;;;15.48;58.75;101141.59;5075835;28;20033;-62
2022/05/16 02:53:43;;;;;;;20.17;10.30;;;;;;;15.43;58.96;101134.25;5075597;28;20029;-62
2022/05/16 02:56:08;;;;;;;20.13;11.15;;;;;;;15.39;59.29;101126.88;5076593;28;20229;-62
2022/05/16 02:58:34;;;;;;;20.20;11.13;;;;;;;15.36;59.11;101131.16;5076610;28;20095;-62
2022/05/16 03:00:59;;;;;;;20.92;10.43;;;;;;;15.35;59.05;101135.09;5074758;28;20476;-62
2022/05/16 03:03:24;;;;;;;19.58;10.48;;;;;;;15.29;59.42;101116.91;5074470;28;20032;-62
2022/05/16 03:05:50;;;;;;;20.90;10.07;;;;;;;15.30;59.59;101121.34;5076057;28;20063;-61
2022/05/16 03:08:15;;;;;;;20.02;10.43;;;;;;;15.26;59.63;101112.00;5075847;28;20044;-61
2022/05/16 03:10:40;;;;;;;22.48;10.98;;;;;;;15.24;59.64;101108.72;5076072;28;20024;-61
2022/05/16 03:13:06;;;;;;;20.83;11.18;;;;;;;15.21;60.33;101109.41;5074503;28;20036;-61
2022/05/16 03:15:31;;;;;;;21.02;10.30;;;;;;;15.17;59.94;101111.19;5075961;28;20031;-61
2022/05/16 03:17:57;;;;;;;20.65;9.98;;;;;;;15.15;60.20;101113.47;5074428;28;20509;-62
2022/05/16 03:20:23;;;;;;;21.15;10.38;;;;;;;15.14;60.40;101112.69;5075520;28;20029;-62
2022/05/16 03:22:48;;;;;;;21.05;10.75;;;;;;;15.14;60.22;101107.09;5075886;28;20028;-62
2022/05/16 03:25:13;;;;;;;19.77;10.32;;;;;;;15.12;60.52;101103.81;5075491;28;20448;-63
2022/05/16 03:27:39;;;;;;;21.20;10.73;;;;;;;15.07;60.95;101099.25;5075336;28;20116;-62
2022/05/16 03:30:07;;;;;;;19.40;10.20;;;;;;;15.03;60.94;101094.66;5075107;28;20461;-63
2022/05/16 03:32:33;;;;;;;20.35;10.93;;;;;;;15.03;60.76;101098.25;5075373;28;20036;-62
2022/05/16 03:34:58;;;;;;;21.95;11.20;;;;;;;15.00;60.94;101098.09;5074822;28;20035;-61
2022/05/16 03:37:23;;;;;;;22.30;10.82;;;;;;;15.01;61.47;101106.16;5075081;28;20024;-61
2022/05/16 03:42:34;;;;;;;20.90;10.68;;;;;;;15.03;61.54;101114.16;5075430;28;20058;-62
2022/05/16 03:44:59;;;;;;;19.92;11.45;;;;;;;15.05;61.39;101117.44;5075196;28;20021;-62
2022/05/16 03:47:25;;;;;;;22.95;11.80;;;;;;;15.03;61.54;101112.19;5075011;28;20530;-62
2022/05/16 03:49:51;;;;;;;21.05;11.48;;;;;;;15.01;61.20;101106.16;5074858;28;20028;-63
2022/05/16 03:52:16;;;;;;;21.83;11.65;;;;;;;15.03;61.33;101109.41;5075066;28;20444;-62
2022/05/16 03:54:42;;;;;;;20.42;11.70;;;;;;;14.89;61.04;101089.28;5074241;28;20518;-62
2022/05/16 03:57:08;;;;;;;20.02;11.18;;;;;;;14.98;61.59;101104.00;5073422;28;20028;-62
2022/05/16 03:59:33;;;;;;;20.98;11.75;;;;;;;14.96;61.27;101098.78;5074778;28;20024;-62
2022/05/16 04:01:58;;;;;;;20.42;11.27;;;;;;;15.05;61.70;101109.09;5074604;28;20025;-61
2022/05/16 04:04:25;;;;;;;21.10;12.00;;;;;;;15.06;61.75;101110.72;5074646;28;20044;-61
2022/05/16 04:06:50;;;;;;;20.05;11.77;;;;;;;15.07;61.54;101110.38;5074619;28;20029;-61
2022/05/16 04:09:16;;;;;;;22.50;11.45;;;;;;;15.06;61.73;101107.94;5074614;28;20475;-62
2022/05/16 04:11:41;;;;;;;22.42;11.73;;;;;;;15.08;61.57;101106.47;5074512;28;20021;-62
2022/05/16 04:14:07;;;;;;;22.77;12.18;;;;;;;15.01;62.08;101106.16;5074181;28;20124;-61
2022/05/16 04:16:33;;;;;;;21.17;11.77;;;;;;;15.03;62.00;101103.81;5074299;28;20028;-61
2022/05/16 04:18:58;;;;;;;21.05;12.20;;;;;;;15.05;62.23;101095.97;5073922;28;20052;-62
2022/05/16 04:21:23;;;;;;;20.17;12.35;;;;;;;15.08;62.36;101103.66;5073798;28;20028;-62
2022/05/16 04:23:49;;;;;;;22.67;12.38;;;;;;;15.09;62.41;101105.31;5074495;28;20032;-61
2022/05/16 04:26:14;;;;;;;22.65;11.63;;;;;;;15.17;62.02;101105.63;5074431;28;20140;-62
2022/05/16 04:28:39;;;;;;;20.92;11.20;;;;;;;15.19;61.53;101115.28;5074137;28;20020;-62
2022/05/16 04:31:05;;;;;;;23.25;11.60;;;;;;;15.20;61.66;101099.38;5074296;28;20368;-62
2022/05/16 04:33:33;;;;;;;20.75;11.38;;;;;;;15.28;61.68;101104.94;5073920;28;20024;-63
2022/05/16 04:35:59;;;;;;;20.50;11.27;;;;;;;15.40;61.29;101112.59;5074088;28;20040;-63
2022/05/16 04:38:24;;;;;;;21.10;11.70;;;;;;;15.44;61.30;101116.38;5072423;28;20035;-62
2022/05/16 04:43:33;;;;;;;20.55;11.70;;;;;;;15.62;61.10;101116.31;5073920;28;20031;-61
2022/05/16 04:45:59;;;;;;;22.25;11.93;;;;;;;15.67;60.71;101116.13;5073405;28;20028;-62
2022/05/16 04:48:24;;;;;;;21.60;11.50;;;;;;;15.77;60.51;101114.13;5074254;28;20037;-61
2022/05/16 04:50:50;;;;;;;21.75;12.27;;;;;;;15.83;60.87;101118.34;5073932;28;20020;-62
2022/05/16 04:53:15;;;;;;;21.83;11.48;;;;;;;15.93;60.17;101126.38;5072031;28;20036;-62
2022/05/16 04:55:41;;;;;;;21.98;12.00;;;;;;;15.99;60.42;101125.00;5073631;28;20407;-62
2022/05/16 04:58:06;;;;;;;21.27;11.93;;;;;;;16.06;60.33;101119.72;5073632;28;20321;-63
2022/05/16 05:00:31;;;;;;;20.52;11.90;;;;;;;16.10;60.44;101130.22;5074289;28;20108;-62
2022/05/16 05:02:57;;;;;;;22.33;12.23;;;;;;;16.10;60.09;101121.84;5073970;28;20111;-61
2022/05/16 05:05:23;;;;;;;23.15;12.07;;;;;;;16.14;60.54;101129.19;5073999;28;20157;-63
2022/05/16 05:07:48;;;;;;;22.98;12.50;;;;;;;16.21;60.36;101134.25;5073438;28;20102;-62
2022/05/16 05:15:46;;;;;;;20.92;12.23;;;;;;;16.49;59.81;101134.56;5073722;28;20542;-61
2022/05/16 05:18:11;;;;;;;21.23;11.60;;;;;;;16.61;59.44;101133.00;5073437;28;20035;-62
2022/05/16 05:20:37;;;;;;;21.02;12.27;;;;;;;16.67;59.18;101126.88;5072199;28;20111;-63
2022/05/16 05:23:04;;;;;;;22.65;12.32;;;;;;;16.78;58.97;101127.25;5073592;28;20123;-61
2022/05/16 05:25:29;;;;;;;21.77;12.50;;;;;;;16.96;58.43;101124.34;5073086;28;20028;-62
2022/05/16 05:27:55;;;;;;;21.60;12.57;;;;;;;17.09;58.23;101103.66;5073791;28;20025;-62
2022/05/16 05:30:24;;;;;;;21.67;12.48;;;;;;;17.13;58.36;101104.63;5072905;28;20024;-63
2022/05/16 05:32:50;;;;;;;20.95;12.30;;;;;;;17.41;57.62;101114.34;5071411;28;20028;-63
2022/05/16 05:35:17;;;;;;;22.30;12.15;;;;;;;17.56;57.28;101115.66;5072762;28;20424;-62
2022/05/16 05:37:43;;;;;;;21.00;11.93;;;;;;;17.70;57.39;101130.16;5072693;28;20417;-62
2022/05/16 05:40:10;;;;;;;23.08;12.75;;;;;;;17.84;56.20;101129.81;5071554;28;20043;-64
2022/05/16 05:42:36;;;;;;;20.67;12.20;;;;;;;17.91;56.23;101121.63;5071624;28;20028;-63
2022/05/16 05:45:03;;;;;;;20.42;12.55;;;;;;;17.98;56.25;101118.28;5072998;28;20033;-63
2022/05/16 05:47:29;;;;;;;22.33;12.45;;;;;;;18.03;56.26;101112.44;5072752;28;20032;-64
2022/05/16 05:49:54;;;;;;;22.85;12.60;;;;;;;18.11;55.90;101116.28;5073184;28;20393;-64
2022/05/16 05:52:21;;;;;;;22.45;13.45;;;;;;;18.14;55.73;101129.56;5073058;28;20455;-63
2022/05/16 05:54:47;;;;;;;22.08;12.90;;;;;;;18.22;55.96;101116.63;5072868;28;20032;-63
2022/05/16 05:57:14;;;;;;;21.83;12.77;;;;;;;18.33;55.49;101128.97;5072856;28;20035;-63
2022/05/16 05:59:40;;;;;;;21.80;12.80;;;;;;;18.41;55.91;101141.22;5071483;28;20384;-65
2022/05/16 06:02:07;;;;;;;21.35;13.13;;;;;;;18.46;55.34;101142.97;5072550;28;20449;-64
2022/05/16 06:04:32;;;;;;;20.63;12.20;;;;;;;18.50;54.99;101144.72;5073161;28;20044;-64
2022/05/16 06:06:58;;;;;;;23.52;13.13;;;;;;;18.54;55.22;101142.00;5071546;28;20025;-64
2022/05/16 06:09:24;;;;;;;23.08;13.80;;;;;;;18.54;55.12;101145.63;5071141;28;20078;-64
2022/05/16 06:11:50;;;;;;;20.13;12.93;;;;;;;18.56;55.18;101148.09;5054153;28;20032;-62
2022/05/16 06:14:16;;;;;;;23.20;13.40;;;;;;;18.63;55.24;101153.06;5070839;28;20025;-58
2022/05/16 06:16:42;;;;;;;21.58;13.00;;;;;;;18.57;55.47;101146.09;5072190;28;20126;-63
2022/05/16 06:19:13;;;;;;;26.27;13.65;;;;;;;18.55;55.44;101152.06;5072311;28;20031;-63
2022/05/16 06:21:39;;;;;;;26.33;13.32;;;;;;;18.51;55.88;101148.31;5070969;28;20090;-64
2022/05/16 06:25:31;;;;;;;22.13;13.10;;;;;;;18.41;55.60;101127.22;5070528;28;20032;-64
2022/05/16 06:26:51;;;;;;;22.98;13.50;;;;;;;18.60;56.04;101153.78;5070935;28;20514;-64
2022/05/16 06:29:19;;;;;;;21.90;12.80;;;;;;;18.68;55.96;101152.84;5069089;28;20028;-64
2022/05/16 06:31:44;;;;;;;22.40;12.77;;;;;;;18.83;56.05;101170.91;5070643;28;20031;-65
2022/05/16 06:34:10;;;;;;;24.83;12.80;;;;;;;18.94;55.28;101154.41;5053050;28;20107;-62
2022/05/16 06:36:35;;;;;;;22.40;12.85;;;;;;;18.98;54.51;101164.56;5071165;28;20132;-64
2022/05/16 06:39:01;;;;;;;22.13;12.75;;;;;;;19.03;55.21;101166.28;5070062;28;20431;-64
2022/05/16 06:41:26;;;;;;;21.40;12.63;;;;;;;19.19;54.54;101163.53;5071174;28;20061;-63
2022/05/16 06:43:51;;;;;;;26.50;13.00;;;;;;;19.12;54.55;101144.53;5069874;28;20048;-63
2022/05/16 06:46:18;;;;;;;23.98;13.45;;;;;;;19.43;54.62;101178.59;5069922;28;20033;-64
2022/05/16 06:48:43;;;;;;;25.92;12.95;;;;;;;19.52;53.99;101182.06;5071450;28;20078;-63
2022/05/16 06:51:09;;;;;;;22.00;12.45;;;;;;;19.43;54.18;101156.16;5070953;28;20024;-63
2022/05/16 06:53:34;;;;;;;22.17;13.05;;;;;;;19.52;54.36;101165.22;5069655;28;20036;-63
2022/05/16 06:56:00;;;;;;;23.45;12.63;;;;;;;19.70;53.91;101184.53;5071211;28;20032;-63
2022/05/16 06:58:26;;;;;;;24.23;13.65;;;;;;;19.70;53.58;101185.34;5071135;28;20028;-64
2022/05/16 07:00:52;;;;;;;24.85;13.70;;;;;;;19.73;53.46;101181.84;5070933;28;20728;-63
2022/05/16 07:03:18;;;;;;;20.20;12.70;;;;;;;19.72;53.28;101159.72;5069124;28;20050;-63
2022/05/16 07:05:45;;;;;;;22.15;13.10;;;;;;;19.89;52.99;101173.41;5070726;28;20039;-63
2022/05/16 07:08:11;;;;;;;21.17;13.18;;;;;;;19.90;52.96;101171.44;5068906;28;20116;-64
2022/05/16 07:10:37;;;;;;;23.50;14.07;;;;;;;20.07;53.10;101184.31;5069160;28;20113;-63
2022/05/16 07:13:02;;;;;;;24.25;13.60;;;;;;;20.26;52.67;101200.41;5069717;28;20128;-62
2022/05/16 07:15:28;;;;;;;22.17;12.80;;;;;;;20.34;52.69;101193.78;5070546;28;20029;-64
2022/05/16 07:17:53;;;;;;;22.70;13.20;;;;;;;20.42;53.16;101189.94;5068638;28;20036;-64
2022/05/16 07:20:19;;;;;;;22.58;13.25;;;;;;;20.45;52.57;101191.22;5070368;28;20416;-63
2022/05/16 07:22:46;;;;;;;22.67;13.35;;;;;;;20.62;52.82;101195.63;5070084;28;20039;-64
2022/05/16 07:25:18;;;;;;;28.95;14.55;;;;;;;20.64;52.86;101198.88;5070108;28;20369;-64
2022/05/16 07:28:02;;;;;;;24.13;13.27;;;;;;;20.66;52.47;101179.66;5068880;28;20056;-64
2022/05/16 07:30:30;;;;;;;28.77;14.35;;;;;;;20.83;52.08;101214.19;5069023;28;20155;-64
2022/05/16 07:32:56;;;;;;;25.67;14.40;;;;;;;20.83;52.49;101211.38;5052639;28;20056;-64
2022/05/16 07:35:30;;;;;;;22.48;13.60;;;;;;;20.80;52.54;101198.88;5072275;28;20028;-63
2022/05/16 07:37:56;;;;;;;20.98;13.10;;;;;;;20.86;53.39;101186.13;5072776;28;20028;-63
2022/05/16 07:40:25;;;;;;;22.55;13.50;;;;;;;20.91;52.49;101182.22;5072345;28;20413;-65
2022/05/16 07:42:52;;;;;;;21.73;13.45;;;;;;;21.07;52.18;101195.38;5074340;28;20032;-65
2022/05/16 07:45:18;;;;;;;24.25;13.23;;;;;;;21.08;52.43;101185.75;5074333;28;20090;-62
2022/05/16 07:47:43;;;;;;;22.20;13.90;;;;;;;21.19;52.76;101192.44;5073897;28;20502;-63
2022/05/16 07:50:09;;;;;;;21.38;12.85;;;;;;;21.28;52.74;101201.47;5074071;28;20020;-63
2022/05/16 07:52:36;;;;;;;22.50;13.02;;;;;;;21.31;53.06;101208.34;5073734;28;20111;-64
2022/05/16 07:55:03;;;;;;;21.13;12.68;;;;;;;21.28;53.52;101201.47;5074176;28;20119;-64
2022/05/16 07:57:30;;;;;;;21.02;11.68;;;;;;;21.35;52.85;101212.84;5074293;28;20032;-65
2022/05/16 07:59:56;;;;;;;21.77;12.40;;;;;;;21.29;52.57;101188.22;5073990;28;20471;-64
2022/05/16 08:02:21;;;;;;;21.58;12.48;;;;;;;21.47;52.70;101213.88;5074057;28;20029;-64
2022/05/16 08:04:47;;;;;;;20.52;12.65;;;;;;;21.45;52.32;101203.00;5074175;28;20036;-64
2022/05/16 08:07:12;;;;;;;20.83;12.13;;;;;;;21.58;52.24;101214.09;5073699;28;20032;-64
2022/05/16 08:12:31;;;;;;;;;;;;;;;21.81;52.13;101237.47;5072358;28;20036;-64
2022/05/16 08:14:57;;;;;;;21.25;13.05;;;;;;;21.74;52.65;101222.44;5072221;28;19920;-64
2022/05/16 08:17:23;;;;;;;23.95;13.15;;;;;;;21.89;52.04;101231.97;5072517;28;20089;-64
2022/05/16 08:19:49;;;;;;;23.08;12.43;;;;;;;21.88;51.76;101203.00;5071775;28;20025;-63
2022/05/16 08:22:16;;;;;;;21.10;12.57;;;;;;;22.15;52.15;101233.25;5073389;28;20124;-63
2022/05/16 08:24:41;;;;;;;21.92;12.73;;;;;;;22.27;52.09;101230.19;5073409;28;20143;-63
2022/05/16 08:27:07;;;;;;;20.77;11.98;;;;;;;22.29;52.06;101222.19;5070589;28;20772;-63
2022/05/16 08:29:32;;;;;;;19.55;12.30;;;;;;;22.38;51.26;101224.75;5072610;28;20457;-64
2022/05/16 08:31:58;;;;;;;23.90;12.55;;;;;;;22.36;51.29;101201.75;5073149;28;20103;-63
2022/05/16 08:34:24;;;;;;;22.00;12.40;;;;;;;22.74;51.05;101223.28;5071230;28;20078;-63
2022/05/16 08:39:52;;;;;;;19.27;11.75;;;;;;;23.04;49.38;101222.50;5073300;28;20106;-64
2022/05/16 08:42:22;;;;;;;18.98;11.32;;;;;;;22.88;49.89;101219.06;5073016;28;20147;-64
2022/05/16 08:45:09;;;;;;;18.83;10.63;;;;;;;22.93;50.14;101240.47;5070910;28;20017;-64
2022/05/16 08:47:47;;;;;;;18.63;10.30;;;;;;;22.71;49.62;101231.72;5072868;28;20490;-65
2022/05/16 08:50:18;;;;;;;17.65;10.10;;;;;;;22.54;50.03;101218.97;5072991;28;20131;-64
2022/05/16 08:53:02;;;;;;;17.55;9.93;;;;;;;22.67;49.95;101228.84;5073027;28;20032;-66
2022/05/16 08:55:38;;;;;;;20.05;10.48;;;;;;;22.78;50.41;101236.66;5072842;28;20039;-65
2022/05/16 08:58:15;;;;;;;19.65;10.50;;;;;;;22.87;50.82;101229.50;5073019;28;20033;-66
2022/05/16 09:00:51;;;;;;;19.45;10.07;;;;;;;23.10;49.67;101244.72;5073064;28;20029;-65
2022/05/16 09:03:33;;;;;;;22.52;10.50;;;;;;;23.33;49.31;101239.81;5071850;28;20032;-65
2022/05/16 09:06:05;;;;;;;20.30;9.80;;;;;;;23.46;48.75;101231.09;5072014;28;20037;-64
2022/05/16 09:08:49;;;;;;;20.40;10.00;;;;;;;23.65;48.96;101241.38;5071105;28;20039;-63
2022/05/16 09:11:27;;;;;;;18.77;9.90;;;;;;;23.69;49.07;101211.16;5071125;28;20024;-64
2022/05/16 09:14:05;;;;;;;19.02;9.85;;;;;;;23.93;48.43;101223.06;5069435;28;20115;-66
2022/05/16 09:16:34;;;;;;;18.20;10.02;;;;;;;24.15;48.11;101226.94;5071168;28;20033;-63
2022/05/16 09:19:22;;;;;;;19.10;9.82;;;;;;;24.19;48.12;101210.81;5071457;28;20029;-64
2022/05/16 09:22:21;;;;;;;19.75;10.07;;;;;;;24.59;47.81;101233.72;5071623;28;20040;-65
2022/05/16 09:24:58;;;;;;;16.88;9.38;;;;;;;24.82;47.40;101224.19;5070654;28;20029;-63
2022/05/16 09:30:23;;;;;;;17.23;9.77;;;;;;;24.90;46.04;101200.38;5072173;28;20459;-62
2022/05/16 09:32:55;;;;;;;16.73;9.52;;;;;;;25.05;45.12;101209.75;5071788;28;20109;-64
2022/05/16 09:35:40;;;;;;;16.92;9.73;;;;;;;25.13;44.92;101211.41;5072119;28;20024;-62
2022/05/16 09:38:06;;;;;;;17.20;9.00;;;;;;;25.33;43.56;101228.84;5071784;28;20388;-64
2022/05/16 09:40:37;;;;;;;16.52;9.63;;;;;;;25.25;43.04;101206.59;5071917;28;20029;-63
2022/05/16 09:43:16;;;;;;;16.90;8.55;;;;;;;25.40;42.77;101213.94;5070683;28;20036;-63
2022/05/16 09:45:49;;;;;;;16.00;8.80;;;;;;;25.41;42.95;101221.22;5071338;28;20032;-63
2022/05/16 09:48:23;;;;;;;15.80;8.98;;;;;;;25.34;42.62;101205.00;5071011;28;20111;-65
2022/05/16 09:50:58;;;;;;;;;;;;;;;25.64;44.21;101220.09;5071951;28;20062;-64
2022/05/16 09:53:29;;;;;;;16.77;9.48;;;;;;;25.91;43.12;101228.22;5071916;28;20022;-63
2022/05/16 09:56:00;;;;;;;17.50;9.20;;;;;;;25.95;41.62;101229.00;5069400;28;20341;-63
2022/05/16 09:58:33;;;;;;;14.80;8.98;;;;;;;25.92;41.39;101230.63;5069409;28;20143;-64
2022/05/16 10:01:05;;;;;;;14.55;8.23;;;;;;;26.07;41.82;101242.00;5071528;28;20032;-62
2022/05/16 10:03:44;;;;;;;15.43;9.05;;;;;;;26.14;42.02;101248.50;5070134;28;20496;-64
2022/05/16 10:06:29;;;;;;;19.15;9.45;;;;;;;26.10;42.24;101250.53;5071574;28;20024;-64
2022/05/16 10:08:55;;;;;;;17.73;9.65;;;;;;;25.99;42.49;101252.50;5069646;28;20035;-64
2022/05/16 10:11:28;;;;;;;16.52;9.23;;;;;;;25.98;42.92;101265.84;5069919;28;20024;-63
2022/05/16 10:13:55;;;;;;;20.70;9.50;;;;;;;25.91;42.94;101270.72;5070032;28;20033;-64
2022/05/16 10:16:21;;;;;;;17.17;9.05;;;;;;;25.79;43.32;101261.38;5071029;28;20678;-63
2022/05/16 10:18:55;;;;;;;19.13;9.30;;;;;;;25.95;43.04;101274.34;5070907;28;20025;-64
2022/05/16 10:21:32;;;;;;;;;;;;;;;26.23;42.73;101281.31;5072172;28;20032;-64
2022/05/16 10:23:59;;;;;;;16.83;9.05;;;;;;;26.38;41.73;101268.75;5069804;28;19959;-64
2022/05/16 10:26:29;;;;;;;16.63;9.15;;;;;;;26.57;41.64;101256.16;5068906;28;20462;-63
2022/05/16 10:29:00;;;;;;;17.90;9.75;;;;;;;26.69;41.13;101259.81;5069351;28;20024;-62
2022/05/16 10:34:25;;;;;;;18.95;9.70;;;;;;;26.49;42.09;101293.47;5070788;28;20043;-65
2022/05/16 10:36:54;;;;;;;16.35;9.20;;;;;;;26.09;42.50;101270.75;5070579;28;20513;-64
2022/05/16 10:39:24;;;;;;;18.88;9.77;;;;;;;25.94;43.62;101282.06;5070480;28;20052;-65
2022/05/16 10:42:16;;;;;;;19.15;10.13;;;;;;;25.80;46.93;101313.19;5069575;28;20046;-63
2022/05/16 10:44:53;;;;;;;20.73;10.75;;;;;;;25.40;48.86;101310.22;5062558;28;20108;-64
2022/05/16 10:47:24;;;;;;;18.88;10.30;;;;;;;24.92;50.64;101326.13;5070831;28;20021;-65
2022/05/16 10:50:13;;;;;;;20.08;10.60;;;;;;;24.50;51.52;101320.91;5069681;28;20345;-65
2022/05/16 10:52:47;;;;;;;20.13;10.63;;;;;;;23.87;54.65;101321.50;5051708;28;20051;-64
2022/05/16 10:55:13;;;;;;;18.20;10.50;;;;;;;23.69;57.85;101343.91;5066174;28;20033;-65
2022/05/16 10:57:57;;;;;;;19.33;10.73;;;;;;;23.52;59.67;101348.94;5049754;28;20037;-65
2022/05/16 11:00:33;;;;;;;21.63;11.52;;;;;;;23.39;59.12;101355.19;5049574;28;20025;-65
2022/05/16 11:03:08;;;;;;;21.25;10.65;;;;;;;23.40;59.75;101362.47;5034413;28;20611;-65
2022/05/16 11:05:42;;;;;;;22.40;10.80;;;;;;;23.39;59.46;101347.56;5051414;28;20052;-66
2022/05/16 11:08:40;;;;;;;18.58;10.30;;;;;;;23.56;56.68;101343.34;5051506;28;20108;-65
2022/05/16 11:11:33;;;;;;;19.88;10.73;;;;;;;24.04;56.20;101375.81;5055605;28;20060;-66
2022/05/16 11:14:36;;;;;;;22.03;10.60;;;;;;;24.31;55.05;101376.50;5054365;28;20522;-65
2022/05/16 11:17:24;;;;;;;18.52;10.80;;;;;;;24.59;53.52;101363.81;5022198;28;20559;-68
2022/05/16 11:20:09;;;;;;;19.38;10.43;;;;;;;24.76;53.05;101346.22;5055506;28;20036;-64
2022/05/16 11:22:41;;;;;;;18.92;10.70;;;;;;;25.05;51.94;101371.88;5054425;28;20039;-64
2022/05/16 11:25:15;;;;;;;20.92;11.05;;;;;;;25.07;50.55;101371.50;5055673;28;20065;-66
2022/05/16 11:27:46;;;;;;;;;;;;;;;25.17;50.82;101375.59;5056529;28;20045;-66
2022/05/16 11:30:21;;;;;;;28.80;13.10;;;;;;;24.89;50.58;101379.84;5054567;28;19920;-66
2022/05/16 11:33:02;;;;;;;18.98;11.77;;;;;;;24.58;51.14;101374.34;5055876;28;20029;-65
2022/05/16 11:35:46;;;;;;;19.80;11.68;;;;;;;24.34;52.67;101387.03;5054924;28;20091;-66
2022/05/16 11:38:50;;;;;;;21.27;12.35;;;;;;;24.11;53.14;101388.00;5054146;28;20078;-66
2022/05/16 11:41:25;;;;;;;25.50;13.07;;;;;;;24.16;54.75;101386.84;5013504;28;20040;-67
2022/05/16 11:44:02;;;;;;;21.83;11.80;;;;;;;23.94;54.77;101388.59;5049269;28;20033;-66
2022/05/16 11:46:31;;;;;;;19.77;12.20;;;;;;;23.65;56.10;101403.19;5055632;28;20036;-67
2022/05/16 11:49:02;;;;;;;20.67;12.68;;;;;;;23.47;56.94;101413.41;5055242;28;20040;-67
2022/05/16 11:51:53;;;;;;;21.35;12.77;;;;;;;23.34;57.06;101404.34;5055640;28;20044;-65
2022/05/16 11:54:25;;;;;;;22.42;12.90;;;;;;;22.97;58.26;101411.44;5054917;28;20127;-66